Time;durP1;ratioP1;P1;durP2;ratioP2;P2;SDS_P1;SDS_P2;PMS_P1;PMS_P2;Temp;Humidity;BMP_temperature;BMP_pressure;BME280_temperature;BME280_humidity;BME280_pressure;Samples;Min_cycle;Max_cycle;Signal;HPM_P1;HPM_P2
2024/01/27 00:03:16;;;;;;;7.55;2.47;;;22.50;44.20;;;;;;10431339;28;20073;-58
2024/01/27 00:08:21;;;;;;;8.10;3.08;;;22.50;44.20;;;;;;10429590;28;20053;-57
2024/01/27 00:13:22;;;;;;;6.18;2.38;;;22.40;44.30;;;;;;10435525;28;20080;-59
2024/01/27 00:18:24;;;;;;;5.15;2.38;;;22.30;44.20;;;;;;10435227;28;20068;-58
2024/01/27 00:23:27;;;;;;;6.30;2.38;;;22.40;44.20;;;;;;10430475;28;20091;-59
2024/01/27 00:28:29;;;;;;;6.93;2.50;;;22.40;43.90;;;;;;10431034;28;20049;-59
2024/01/27 00:33:30;;;;;;;5.13;2.58;;;22.30;44.10;;;;;;10436154;28;20135;-59
2024/01/27 00:38:33;;;;;;;9.00;2.78;;;22.30;44.20;;;;;;10430897;28;20096;-59
2024/01/27 00:43:35;;;;;;;4.85;2.15;;;22.30;44.20;;;;;;10430515;28;20619;-59
2024/01/27 00:48:37;;;;;;;4.85;2.03;;;22.20;44.20;;;;;;10433500;28;20049;-60
2024/01/27 00:53:41;;;;;;;5.55;2.10;;;22.20;44.10;;;;;;10427973;28;20048;-57
2024/01/27 00:58:42;;;;;;;5.90;2.40;;;22.20;44.20;;;;;;10434063;28;20671;-59
2024/01/27 01:03:45;;;;;;;5.15;1.92;;;22.20;44.10;;;;;;10430574;28;20083;-58
2024/01/27 01:08:49;;;;;;;4.78;1.92;;;22.20;44.00;;;;;;10431329;28;20061;-57
2024/01/27 01:13:51;;;;;;;6.32;1.98;;;22.20;44.10;;;;;;10422057;28;20049;-57
2024/01/27 01:18:53;;;;;;;5.05;2.00;;;22.10;44.10;;;;;;10423680;28;20098;-60
2024/01/27 01:23:56;;;;;;;4.50;1.90;;;22.10;44.00;;;;;;10427764;28;20041;-55
2024/01/27 01:28:57;;;;;;;4.90;2.00;;;22.10;44.00;;;;;;10429347;28;20107;-59
2024/01/27 01:33:59;;;;;;;5.35;2.25;;;22.10;44.00;;;;;;10422438;28;20064;-58
2024/01/27 01:39:02;;;;;;;4.95;1.52;;;22.10;44.00;;;;;;10429121;28;20419;-56
2024/01/27 01:44:04;;;;;;;3.85;1.60;;;22.10;44.00;;;;;;10422885;28;20041;-58
2024/01/27 01:49:06;;;;;;;3.60;1.58;;;22.00;44.10;;;;;;10434884;28;20100;-57
2024/01/27 01:54:09;;;;;;;5.32;2.13;;;22.00;44.00;;;;;;10440544;28;20081;-58
2024/01/27 01:59:10;;;;;;;3.95;1.70;;;22.00;43.90;;;;;;10433112;28;20044;-59
2024/01/27 02:04:12;;;;;;;5.38;2.08;;;22.00;43.90;;;;;;10434868;28;20068;-55
2024/01/27 02:09:15;;;;;;;4.45;2.05;;;22.00;44.00;;;;;;10431580;28;20424;-57
2024/01/27 02:14:17;;;;;;;5.60;2.05;;;22.00;44.00;;;;;;10429779;28;20065;-63
2024/01/27 02:19:19;;;;;;;4.15;1.83;;;22.00;44.00;;;;;;10436193;28;20076;-63
2024/01/27 02:24:22;;;;;;;5.22;1.70;;;22.00;43.70;;;;;;10437793;28;20092;-63
2024/01/27 02:29:24;;;;;;;5.78;2.30;;;22.00;43.80;;;;;;10431187;28;20069;-63
2024/01/27 02:34:26;;;;;;;5.72;1.70;;;22.00;43.70;;;;;;10435237;28;20059;-63
2024/01/27 02:39:29;;;;;;;4.13;1.88;;;22.00;43.60;;;;;;10430135;28;20041;-63
2024/01/27 02:44:31;;;;;;;5.90;1.80;;;22.00;43.60;;;;;;10434383;28;20042;-63
2024/01/27 02:49:32;;;;;;;4.10;1.90;;;21.90;43.70;;;;;;10433765;28;20530;-63
2024/01/27 02:54:35;;;;;;;4.53;1.80;;;21.90;43.70;;;;;;10430083;28;20107;-63
2024/01/27 02:59:38;;;;;;;3.88;1.75;;;21.90;43.70;;;;;;10430609;28;20041;-62
2024/01/27 03:04:40;;;;;;;3.33;1.65;;;21.90;43.80;;;;;;10432379;28;20124;-61
2024/01/27 03:09:43;;;;;;;4.22;1.90;;;21.80;43.80;;;;;;10431155;28;20123;-62
2024/01/27 03:14:46;;;;;;;4.38;1.50;;;21.90;43.80;;;;;;10427183;28;20049;-62
2024/01/27 03:19:47;;;;;;;3.05;1.40;;;21.80;43.60;;;;;;10424606;28;20128;-63
2024/01/27 03:24:51;;;;;;;3.78;1.65;;;21.90;43.70;;;;;;10431021;28;20049;-63
2024/01/27 03:29:53;;;;;;;3.70;1.60;;;21.80;43.60;;;;;;10427647;28;20132;-63
2024/01/27 03:34:54;;;;;;;3.60;1.60;;;21.80;43.80;;;;;;10428816;28;20615;-62
2024/01/27 03:39:57;;;;;;;3.47;1.80;;;21.80;43.80;;;;;;10430380;28;20057;-62
2024/01/27 03:44:59;;;;;;;3.72;1.67;;;21.80;43.60;;;;;;10425666;28;20072;-63
2024/01/27 03:50:01;;;;;;;5.60;1.75;;;21.70;43.80;;;;;;10427850;28;20049;-63
2024/01/27 03:55:05;;;;;;;3.42;1.50;;;21.80;43.70;;;;;;10430844;28;20448;-63
2024/01/27 04:00:08;;;;;;;2.88;1.40;;;21.70;43.70;;;;;;10424115;28;20098;-63
2024/01/27 04:05:09;;;;;;;2.80;1.52;;;21.80;43.70;;;;;;10429524;28;20041;-63
2024/01/27 04:10:13;;;;;;;4.13;1.67;;;22.40;42.60;;;;;;10430318;28;20995;-63
2024/01/27 04:15:14;;;;;;;6.72;1.70;;;22.70;42.40;;;;;;10429484;28;20041;-63
2024/01/27 04:20:16;;;;;;;3.65;1.23;;;22.80;42.10;;;;;;10432366;28;20049;-62
2024/01/27 04:25:19;;;;;;;4.18;1.33;;;22.90;41.90;;;;;;10424986;28;20072;-62
2024/01/27 04:30:21;;;;;;;3.88;1.65;;;23.10;41.40;;;;;;10428186;28;20076;-63
2024/01/27 04:35:22;;;;;;;2.00;1.27;;;23.20;41.20;;;;;;10427111;28;20076;-63
2024/01/27 04:40:25;;;;;;;2.10;1.27;;;23.10;41.40;;;;;;10430806;28;20041;-63
2024/01/27 04:45:27;;;;;;;3.08;1.60;;;23.30;41.00;;;;;;10426797;28;20049;-63
2024/01/27 04:50:29;;;;;;;2.25;1.40;;;23.40;40.90;;;;;;10431708;28;20143;-63
2024/01/27 04:55:32;;;;;;;3.63;1.60;;;22.90;41.70;;;;;;10430846;28;20163;-63
2024/01/27 05:00:33;;;;;;;2.35;1.35;;;22.80;42.10;;;;;;10428966;28;20057;-63
2024/01/27 05:05:35;;;;;;;3.30;1.42;;;22.90;42.00;;;;;;10424261;28;20041;-63
2024/01/27 05:10:38;;;;;;;2.92;1.40;;;23.00;41.70;;;;;;10424236;28;20508;-62
2024/01/27 05:15:40;;;;;;;3.55;1.50;;;22.90;41.80;;;;;;10418887;28;20086;-63
2024/01/27 05:20:41;;;;;;;4.25;1.48;;;23.20;41.20;;;;;;10428476;28;20064;-63
2024/01/27 05:25:44;;;;;;;2.58;1.40;;;23.30;41.00;;;;;;10421612;28;20076;-62
2024/01/27 05:30:46;;;;;;;2.20;1.15;;;23.50;40.90;;;;;;10428948;28;20120;-63
2024/01/27 05:35:48;;;;;;;3.13;1.20;;;23.30;41.00;;;;;;10430038;28;20511;-63
2024/01/27 05:40:51;;;;;;;4.25;1.45;;;23.40;41.10;;;;;;10427035;28;20080;-63
2024/01/27 05:45:53;;;;;;;2.88;1.23;;;23.40;41.00;;;;;;10419727;28;20073;-63
2024/01/27 05:50:57;;;;;;;2.03;1.17;;;23.60;40.70;;;;;;10421365;28;20567;-63
2024/01/27 05:56:00;;;;;;;2.83;1.30;;;23.50;40.60;;;;;;10429335;28;20424;-63
2024/01/27 06:01:02;;;;;;;2.65;1.27;;;23.40;41.00;;;;;;10423228;28;20052;-63
2024/01/27 06:06:04;;;;;;;4.05;1.30;;;23.30;41.00;;;;;;10433601;28;20090;-62
2024/01/27 06:11:07;;;;;;;2.47;1.10;;;23.10;41.40;;;;;;10429394;28;20075;-63
2024/01/27 06:16:09;;;;;;;3.70;1.50;;;23.00;41.40;;;;;;10429268;28;20524;-63
2024/01/27 06:21:11;;;;;;;1.80;1.00;;;23.00;41.60;;;;;;10420863;28;20069;-63
2024/01/27 06:26:14;;;;;;;2.75;1.17;;;22.90;41.80;;;;;;10421175;28;20095;-62
2024/01/27 06:31:17;;;;;;;2.63;1.38;;;22.80;41.80;;;;;;10426562;28;20102;-62
2024/01/27 06:36:18;;;;;;;2.20;1.10;;;22.80;41.80;;;;;;10430086;28;20073;-63
2024/01/27 06:41:22;;;;;;;3.40;1.25;;;22.70;41.90;;;;;;10433578;28;20045;-63
2024/01/27 06:46:23;;;;;;;3.00;1.23;;;22.70;42.10;;;;;;10437318;28;20167;-63
2024/01/27 06:51:25;;;;;;;3.45;1.20;;;22.60;42.20;;;;;;10432230;28;20500;-63
2024/01/27 06:56:28;;;;;;;2.17;1.33;;;22.60;42.10;;;;;;10433225;28;20072;-63
2024/01/27 07:01:30;;;;;;;3.00;1.33;;;22.50;42.30;;;;;;10428677;28;20046;-63
2024/01/27 07:06:31;;;;;;;2.72;1.15;;;22.50;42.20;;;;;;10425569;28;20512;-63
2024/01/27 07:11:34;;;;;;;2.85;1.25;;;22.50;42.20;;;;;;10436072;28;20496;-63
2024/01/27 07:16:36;;;;;;;3.03;1.40;;;22.60;42.30;;;;;;10434045;28;20033;-63
2024/01/27 07:21:38;;;;;;;2.08;1.15;;;22.60;42.10;;;;;;10443441;28;20041;-63
2024/01/27 07:26:41;;;;;;;2.95;1.17;;;22.70;42.00;;;;;;10437125;28;20048;-63
2024/01/27 07:31:43;;;;;;;3.00;1.00;;;22.60;42.20;;;;;;10431050;28;20107;-63
2024/01/27 07:36:45;;;;;;;4.10;2.92;;;22.80;42.00;;;;;;10426986;28;20068;-63
2024/01/27 07:41:48;;;;;;;5.30;4.60;;;22.60;42.50;;;;;;10426082;28;20053;-63
2024/01/27 07:46:50;;;;;;;6.72;5.68;;;22.50;43.00;;;;;;10427864;28;20056;-63
2024/01/27 07:51:52;;;;;;;11.15;5.93;;;22.60;42.80;;;;;;10435348;28;20072;-62
2024/01/27 07:56:55;;;;;;;10.13;6.00;;;22.60;43.60;;;;;;10432723;28;20076;-62
2024/01/27 08:01:57;;;;;;;9.25;6.80;;;22.60;43.10;;;;;;10434402;28;20072;-64
2024/01/27 08:06:58;;;;;;;15.77;6.95;;;22.80;42.90;;;;;;10430126;28;20092;-64
2024/01/27 08:12:01;;;;;;;18.50;6.55;;;22.90;43.40;;;;;;10423407;28;20077;-64
2024/01/27 08:17:04;;;;;;;12.18;5.47;;;22.80;43.60;;;;;;10426616;28;20408;-63
2024/01/27 08:22:05;;;;;;;14.02;5.20;;;22.80;42.80;;;;;;10426318;28;20064;-64
2024/01/27 08:27:09;;;;;;;12.02;4.78;;;22.70;42.30;;;;;;10447928;22;20080;-88
2024/01/27 08:32:11;;;;;;;17.77;5.35;;;22.80;41.90;;;;;;10477710;28;20099;-88
2024/01/27 08:37:28;;;;;;;12.68;4.70;;;22.80;42.30;;;;;;10465347;28;20049;-90
2024/01/27 08:42:35;;;;;;;12.70;4.53;;;22.70;43.50;;;;;;10451290;28;20037;-91
2024/01/27 08:47:54;;;;;;;12.73;5.68;;;22.70;43.90;;;;;;10431407;28;20046;-90
2024/01/27 08:53:21;;;;;;;21.85;18.35;;;22.70;44.80;;;;;;10441297;28;20095;-90
2024/01/27 08:58:36;;;;;;;42.17;37.85;;;22.80;45.20;;;;;;10430053;28;20147;-90
2024/01/27 09:04:00;;;;;;;65.10;58.63;;;22.90;45.70;;;;;;10450169;28;20071;-89
2024/01/27 09:14:55;;;;;;;110.30;97.00;;;22.80;46.90;;;;;;10437326;28;20884;-91
2024/01/27 09:20:03;;;;;;;104.38;87.22;;;22.80;47.80;;;;;;10453531;28;20140;-91
2024/01/27 09:25:18;;;;;;;89.57;76.15;;;22.90;49.30;;;;;;10431333;28;20630;-89
2024/01/27 09:36:12;;;;;;;79.10;54.85;;;22.90;50.50;;;;;;10441673;28;20044;-89
2024/01/27 09:41:20;;;;;;;65.95;49.38;;;23.10;49.70;;;;;;10452080;28;20125;-89
2024/01/27 09:46:45;;;;;;;57.13;42.40;;;23.10;49.70;;;;;;10437449;28;20042;-88
2024/01/27 09:51:50;;;;;;;51.92;37.38;;;23.10;49.60;;;;;;10447252;28;20400;-89
2024/01/27 10:02:34;;;;;;;50.70;31.73;;;23.10;49.30;;;;;;10424957;28;20041;-88
2024/01/27 10:07:45;;;;;;;46.75;28.08;;;23.20;49.20;;;;;;10442711;28;20048;-89
2024/01/27 10:13:12;;;;;;;36.67;25.30;;;23.20;49.20;;;;;;10438493;28;20053;-89
2024/01/27 10:18:23;;;;;;;31.88;22.05;;;23.20;49.30;;;;;;10448092;28;20051;-89
2024/01/27 10:23:42;;;;;;;32.45;21.85;;;23.30;49.10;;;;;;10449192;28;20045;-89
2024/01/27 10:29:09;;;;;;;33.65;19.55;;;23.40;48.90;;;;;;10454531;28;20103;-89
2024/01/27 10:34:33;;;;;;;27.33;17.42;;;23.30;48.70;;;;;;10457314;28;20489;-89
2024/01/27 10:39:47;;;;;;;26.30;16.55;;;23.40;48.50;;;;;;10453127;28;20044;-88
2024/01/27 10:44:58;;;;;;;22.30;15.07;;;23.30;48.90;;;;;;10455907;28;20094;-89
2024/01/27 10:50:09;;;;;;;21.42;13.73;;;23.30;49.00;;;;;;10452890;28;20131;-89
2024/01/27 10:55:22;;;;;;;21.80;13.20;;;23.40;48.70;;;;;;10452703;28;20155;-89
2024/01/27 11:01:01;;;;;;;20.23;13.02;;;23.30;48.70;;;;;;10461262;28;20045;-89
2024/01/27 11:06:13;;;;;;;23.10;11.80;;;23.30;48.60;;;;;;10450614;28;20057;-88
2024/01/27 11:11:34;;;;;;;17.50;11.18;;;23.40;48.30;;;;;;10432066;28;20063;-89
2024/01/27 11:16:46;;;;;;;18.58;11.70;;;23.40;48.20;;;;;;10443082;28;20106;-89
2024/01/27 11:27:36;;;;;;;15.93;10.20;;;23.40;48.00;;;;;;10466126;22;20044;-63
2024/01/27 11:32:38;;;;;;;14.07;9.60;;;23.50;47.80;;;;;;10471210;28;20052;-60
2024/01/27 11:37:41;;;;;;;14.25;9.27;;;23.50;47.70;;;;;;10485086;28;20134;-62
2024/01/27 11:42:42;;;;;;;14.07;8.90;;;23.50;47.60;;;;;;10476476;28;20423;-63
2024/01/27 11:47:44;;;;;;;15.00;8.65;;;23.50;47.40;;;;;;10472525;28;20079;-63
2024/01/27 11:52:47;;;;;;;12.65;8.60;;;23.50;47.20;;;;;;10468758;28;20072;-63
2024/01/27 11:57:48;;;;;;;12.27;8.57;;;23.60;47.10;;;;;;10468350;28;20075;-62
2024/01/27 12:02:51;;;;;;;14.05;8.05;;;23.60;47.10;;;;;;10472520;28;20599;-62
2024/01/27 12:07:54;;;;;;;12.10;7.85;;;23.50;46.90;;;;;;10477143;28;20136;-62
2024/01/27 12:12:56;;;;;;;12.23;7.90;;;23.50;46.90;;;;;;10478960;28;20472;-62
2024/01/27 12:17:57;;;;;;;10.65;6.93;;;23.50;46.90;;;;;;10470642;28;20076;-61
2024/01/27 12:23:07;;;;;;;12.63;7.60;;;23.50;46.90;;;;;;10477314;28;20060;-61
2024/01/27 12:28:09;;;;;;;9.18;6.28;;;23.60;46.50;;;;;;10470713;28;20071;-59
2024/01/27 12:33:10;;;;;;;12.20;6.18;;;23.70;46.00;;;;;;10473233;28;20044;-61
2024/01/27 12:38:13;;;;;;;10.55;6.10;;;23.60;46.20;;;;;;10474490;28;20132;-61
2024/01/27 12:43:15;;;;;;;13.35;6.07;;;23.60;46.20;;;;;;10480669;28;20140;-60
2024/01/27 12:48:17;;;;;;;9.38;6.18;;;23.50;46.60;;;;;;10458555;28;20041;-62
2024/01/27 12:53:20;;;;;;;12.35;6.18;;;23.70;46.60;;;;;;10464390;28;20049;-63
2024/01/27 12:58:22;;;;;;;11.32;5.82;;;23.70;46.70;;;;;;10466639;28;20501;-60
2024/01/27 13:03:23;;;;;;;10.13;5.80;;;23.70;46.70;;;;;;10476907;28;20388;-62
2024/01/27 13:08:26;;;;;;;9.05;5.30;;;23.80;46.40;;;;;;10478629;28;20098;-60
2024/01/27 13:13:28;;;;;;;10.77;5.90;;;23.80;46.30;;;;;;10467351;28;20080;-63
2024/01/27 13:18:30;;;;;;;17.83;5.82;;;23.80;46.50;;;;;;10475538;28;20052;-62
2024/01/27 13:23:33;;;;;;;12.18;5.40;;;23.80;47.30;;;;;;10470187;28;20415;-62
2024/01/27 13:28:34;;;;;;;9.07;5.18;;;23.80;47.10;;;;;;10467897;28;20052;-62
2024/01/27 13:33:36;;;;;;;8.55;4.88;;;23.80;47.10;;;;;;10472566;28;20072;-60
2024/01/27 13:38:39;;;;;;;10.07;4.80;;;23.80;47.20;;;;;;10471948;28;20041;-62
2024/01/27 13:43:40;;;;;;;11.95;4.72;;;23.80;47.30;;;;;;10461720;28;20500;-60
2024/01/27 13:48:42;;;;;;;8.02;4.50;;;23.90;47.50;;;;;;10477942;28;20037;-58
2024/01/27 13:53:45;;;;;;;12.52;4.75;;;24.00;47.80;;;;;;10499274;28;20479;-58
2024/01/27 13:58:47;;;;;;;10.10;4.75;;;24.00;48.40;;;;;;10499419;28;20075;-63
2024/01/27 14:03:49;;;;;;;11.60;4.18;;;24.10;47.50;;;;;;10483906;28;20053;-60
2024/01/27 14:08:52;;;;;;;10.43;3.88;;;24.10;47.40;;;;;;10500432;28;20068;-61
2024/01/27 14:13:53;;;;;;;7.88;3.78;;;24.10;47.10;;;;;;10500642;28;20048;-59
2024/01/27 14:18:55;;;;;;;13.43;4.45;;;24.20;46.90;;;;;;10462585;28;20508;-60
2024/01/27 14:24:02;;;;;;;10.50;3.50;;;24.20;46.90;;;;;;10460690;28;20111;-59
2024/01/27 14:29:04;;;;;;;7.88;3.55;;;24.30;46.60;;;;;;10499600;28;20102;-60
2024/01/27 14:34:06;;;;;;;6.13;3.50;;;24.30;46.60;;;;;;10485917;28;20423;-58
2024/01/27 14:39:10;;;;;;;6.20;3.50;;;24.30;46.40;;;;;;10458403;28;20136;-60
2024/01/27 14:44:12;;;;;;;6.68;3.17;;;24.40;46.20;;;;;;10488367;28;20094;-59
2024/01/27 14:49:13;;;;;;;6.35;3.25;;;24.30;46.20;;;;;;10499190;28;20072;-61
2024/01/27 14:54:16;;;;;;;4.72;3.05;;;24.40;46.20;;;;;;10467861;28;20099;-60
2024/01/27 14:59:18;;;;;;;6.97;3.25;;;24.40;46.00;;;;;;10480573;28;20068;-61
2024/01/27 15:04:20;;;;;;;5.22;3.00;;;24.50;45.60;;;;;;10466610;28;20058;-61
2024/01/27 15:09:23;;;;;;;4.43;2.90;;;24.50;45.60;;;;;;10497110;28;20040;-61
2024/01/27 15:14:25;;;;;;;6.15;2.80;;;24.50;45.60;;;;;;10458480;28;20073;-61
2024/01/27 15:19:26;;;;;;;5.50;3.03;;;24.40;45.50;;;;;;10456626;28;20073;-62
2024/01/27 15:24:33;;;;;;;6.07;2.70;;;24.50;46.00;;;;;;10456222;28;20090;-61
2024/01/27 15:29:35;;;;;;;4.53;2.75;;;24.50;45.50;;;;;;10473348;28;20055;-59
2024/01/27 15:34:36;;;;;;;5.97;2.90;;;24.40;45.40;;;;;;10470909;28;20451;-60
2024/01/27 15:39:39;;;;;;;10.18;4.15;;;24.50;45.30;;;;;;10473629;28;20068;-60
2024/01/27 15:44:41;;;;;;;12.13;5.95;;;24.40;45.90;;;;;;10474858;28;20066;-59
2024/01/27 15:49:43;;;;;;;15.52;7.93;;;24.50;46.80;;;;;;10475837;28;20048;-61
2024/01/27 15:54:47;;;;;;;16.45;8.23;;;24.40;48.30;;;;;;10472802;28;20041;-59
2024/01/27 15:59:49;;;;;;;16.10;8.23;;;24.40;48.80;;;;;;10479243;28;20048;-59
2024/01/27 16:04:50;;;;;;;15.23;8.57;;;24.40;49.00;;;;;;10484503;28;20112;-60
2024/01/27 16:09:56;;;;;;;18.63;8.40;;;24.20;50.00;;;;;;10480259;28;20044;-60
2024/01/27 16:14:58;;;;;;;18.33;9.25;;;24.40;49.30;;;;;;10485357;28;20049;-60
2024/01/27 16:20:00;;;;;;;16.98;9.27;;;24.40;49.30;;;;;;10482200;28;20064;-60
2024/01/27 16:25:04;;;;;;;18.73;8.48;;;24.40;50.60;;;;;;10484789;28;20076;-60
2024/01/27 16:30:07;;;;;;;15.75;7.60;;;24.40;51.10;;;;;;10476277;28;20068;-59
2024/01/27 16:35:09;;;;;;;17.23;7.22;;;24.20;51.60;;;;;;10473695;28;20051;-59
2024/01/27 16:40:12;;;;;;;12.68;6.82;;;24.20;51.70;;;;;;10494352;28;20079;-58
2024/01/27 16:45:14;;;;;;;12.38;5.70;;;24.20;51.90;;;;;;10477278;28;20457;-59
2024/01/27 16:50:16;;;;;;;19.02;6.18;;;24.30;50.40;;;;;;10478033;28;20064;-59
2024/01/27 16:55:19;;;;;;;13.48;6.10;;;24.20;50.30;;;;;;10474199;28;20051;-60
2024/01/27 17:00:23;;;;;;;12.05;5.65;;;24.30;50.60;;;;;;10472164;28;20468;-60
2024/01/27 17:05:24;;;;;;;10.13;5.35;;;24.40;49.60;;;;;;10471230;28;20504;-61
2024/01/27 17:10:27;;;;;;;11.73;5.60;;;24.30;49.00;;;;;;10474571;28;20851;-61
2024/01/27 17:15:30;;;;;;;10.95;5.28;;;24.30;48.80;;;;;;10467648;28;20107;-59
2024/01/27 17:20:31;;;;;;;9.48;4.90;;;24.20;49.00;;;;;;10477010;28;20055;-62
2024/01/27 17:25:35;;;;;;;8.82;4.32;;;24.30;49.10;;;;;;10482062;28;20049;-58
2024/01/27 17:30:36;;;;;;;9.32;4.70;;;24.50;48.80;;;;;;10487240;28;20079;-60
2024/01/27 17:35:38;;;;;;;9.40;4.55;;;24.40;48.80;;;;;;10494491;28;20053;-57
2024/01/27 17:40:41;;;;;;;8.60;4.68;;;24.30;48.80;;;;;;10469884;28;20068;-60
2024/01/27 17:45:43;;;;;;;8.48;4.07;;;24.30;48.90;;;;;;10492042;28;20048;-60
2024/01/27 17:50:45;;;;;;;8.55;4.07;;;24.30;49.20;;;;;;10476822;28;20423;-59
2024/01/27 17:55:48;;;;;;;9.95;4.28;;;24.40;49.00;;;;;;10475316;28;20063;-60
2024/01/27 18:00:50;;;;;;;7.65;4.22;;;24.40;49.10;;;;;;10487767;28;20054;-60
2024/01/27 18:05:52;;;;;;;17.42;4.50;;;24.30;49.10;;;;;;10486306;28;20044;-58
2024/01/27 18:10:55;;;;;;;14.65;4.18;;;24.30;49.40;;;;;;10483129;28;20072;-60
2024/01/27 18:15:57;;;;;;;11.40;4.20;;;24.20;50.10;;;;;;10483929;28;20072;-60
2024/01/27 18:20:59;;;;;;;11.85;4.07;;;24.20;50.50;;;;;;10470321;28;20508;-61
2024/01/27 18:26:02;;;;;;;12.65;4.20;;;24.40;49.50;;;;;;10475008;28;20083;-62
2024/01/27 18:31:04;;;;;;;14.80;4.30;;;24.50;49.10;;;;;;10474279;28;20090;-60
2024/01/27 18:36:06;;;;;;;9.98;4.00;;;24.30;49.00;;;;;;10476309;28;20052;-59
2024/01/27 18:41:09;;;;;;;14.32;4.25;;;24.40;48.80;;;;;;10477454;28;20555;-59
2024/01/27 18:46:12;;;;;;;10.30;4.20;;;24.30;49.30;;;;;;10469774;28;20076;-58
2024/01/27 18:51:13;;;;;;;16.60;4.28;;;24.50;48.80;;;;;;10478351;28;20065;-58
2024/01/27 18:56:16;;;;;;;13.05;3.80;;;24.60;48.40;;;;;;10481404;28;20060;-59
2024/01/27 19:01:19;;;;;;;8.55;4.22;;;24.60;48.30;;;;;;10483236;28;20041;-58
2024/01/27 19:06:20;;;;;;;10.25;3.55;;;24.50;48.20;;;;;;10480731;28;20092;-56
2024/01/27 19:11:23;;;;;;;12.75;4.35;;;24.60;47.90;;;;;;10469650;28;20044;-56
2024/01/27 19:16:25;;;;;;;7.80;3.53;;;24.50;48.00;;;;;;10475367;28;20087;-61
2024/01/27 19:21:27;;;;;;;10.75;4.30;;;24.50;48.10;;;;;;10486206;28;20517;-61
2024/01/27 19:26:30;;;;;;;12.52;4.80;;;24.40;47.90;;;;;;10487297;28;20052;-60
2024/01/27 19:31:33;;;;;;;10.23;4.50;;;24.40;47.80;;;;;;10496874;28;20086;-60
2024/01/27 19:36:35;;;;;;;10.43;4.95;;;24.40;47.90;;;;;;10498509;28;20502;-59
2024/01/27 19:41:38;;;;;;;19.33;10.40;;;24.50;47.90;;;;;;10497869;28;20075;-60
2024/01/27 19:46:40;;;;;;;37.78;19.83;;;24.60;47.60;;;;;;10470120;28;20149;-59
2024/01/27 19:51:43;;;;;;;52.05;29.40;;;24.50;47.70;;;;;;10470765;28;20045;-57
2024/01/27 19:56:46;;;;;;;53.13;30.48;;;24.30;48.10;;;;;;10476280;28;20057;-60
2024/01/27 20:01:47;;;;;;;57.83;31.02;;;24.40;47.90;;;;;;10485067;28;20083;-59
2024/01/27 20:06:54;;;;;;;52.25;32.38;;;24.40;47.70;;;;;;10482815;28;20502;-58
2024/01/27 20:11:57;;;;;;;54.85;31.98;;;24.50;47.40;;;;;;10479671;28;20106;-59
2024/01/27 20:16:58;;;;;;;57.17;33.00;;;24.60;47.30;;;;;;10485799;28;20061;-59
2024/01/27 20:22:01;;;;;;;54.53;31.38;;;24.40;47.30;;;;;;10485827;28;20047;-59
2024/01/27 20:27:05;;;;;;;53.90;30.10;;;24.20;47.20;;;;;;10481999;22;20041;-60
2024/01/27 20:32:06;;;;;;;57.63;32.42;;;24.10;48.00;;;;;;10475470;28;20045;-61
2024/01/27 20:37:09;;;;;;;51.58;29.90;;;24.00;47.60;;;;;;10472589;28;20068;-61
2024/01/27 20:42:13;;;;;;;53.85;30.40;;;24.00;47.20;;;;;;10470857;28;20039;-60
2024/01/27 20:47:15;;;;;;;51.75;29.88;;;24.10;46.80;;;;;;10475764;28;20044;-60
2024/01/27 20:52:17;;;;;;;47.17;29.20;;;24.00;46.70;;;;;;10467696;28;20091;-60
2024/01/27 20:57:21;;;;;;;49.38;29.48;;;24.00;46.50;;;;;;10474027;28;20045;-60
2024/01/27 21:02:23;;;;;;;46.20;28.02;;;24.10;46.20;;;;;;10470891;28;20051;-60
2024/01/27 21:07:25;;;;;;;47.05;28.45;;;23.80;46.30;;;;;;10468376;28;20488;-61
2024/01/27 21:12:28;;;;;;;46.03;29.65;;;23.60;46.70;;;;;;10484174;28;20047;-60
2024/01/27 21:17:29;;;;;;;43.33;26.77;;;23.50;46.90;;;;;;10473037;28;20121;-59
2024/01/27 21:22:31;;;;;;;44.28;28.20;;;23.50;46.70;;;;;;10474117;28;20072;-59
2024/01/27 21:27:34;;;;;;;43.63;28.20;;;23.30;47.00;;;;;;10471054;28;20465;-60
2024/01/27 21:32:36;;;;;;;43.97;27.40;;;23.20;47.00;;;;;;10475067;28;20068;-60
2024/01/27 21:37:37;;;;;;;44.63;27.10;;;23.10;47.30;;;;;;10469694;28;20048;-56
2024/01/27 21:42:40;;;;;;;40.00;25.35;;;23.30;47.00;;;;;;10470579;28;20991;-58
2024/01/27 21:47:42;;;;;;;43.05;26.30;;;23.40;46.60;;;;;;10474138;28;20499;-58
2024/01/27 21:52:44;;;;;;;39.20;25.10;;;23.30;46.70;;;;;;10480265;28;20081;-60
2024/01/27 21:57:47;;;;;;;39.72;25.42;;;23.20;46.60;;;;;;10455118;28;20102;-59
2024/01/27 22:02:49;;;;;;;40.42;25.75;;;23.20;46.60;;;;;;10460387;28;20129;-61
2024/01/27 22:07:50;;;;;;;38.47;25.13;;;22.90;46.90;;;;;;10475838;28;20077;-61
2024/01/27 22:12:53;;;;;;;43.25;25.00;;;22.90;46.90;;;;;;10471724;28;20110;-61
2024/01/27 22:17:55;;;;;;;36.60;24.67;;;23.00;46.80;;;;;;10470656;28;20068;-61
2024/01/27 22:22:57;;;;;;;35.92;24.30;;;23.00;46.80;;;;;;10476120;28;20102;-60
2024/01/27 22:28:00;;;;;;;38.10;24.33;;;22.90;46.60;;;;;;10481113;28;20049;-60
2024/01/27 22:33:01;;;;;;;39.47;25.30;;;23.00;46.60;;;;;;10479359;28;20479;-60
2024/01/27 22:38:03;;;;;;;41.40;26.23;;;23.10;46.30;;;;;;10479317;28;20082;-60
2024/01/27 22:43:06;;;;;;;35.45;23.30;;;22.90;46.40;;;;;;10483590;28;20071;-59
2024/01/27 22:48:10;;;;;;;37.83;23.92;;;22.90;46.40;;;;;;10471766;28;20053;-60
2024/01/27 22:53:13;;;;;;;39.63;22.38;;;23.00;46.30;;;;;;10476936;28;20057;-60
2024/01/27 22:58:16;;;;;;;34.38;23.02;;;23.10;46.20;;;;;;10484042;28;20412;-60
2024/01/27 23:03:18;;;;;;;32.75;22.73;;;23.00;46.20;;;;;;10481992;28;20077;-60
2024/01/27 23:08:20;;;;;;;32.83;23.25;;;23.00;46.00;;;;;;10484485;28;20090;-60
2024/01/27 23:13:23;;;;;;;32.80;22.40;;;23.00;46.00;;;;;;10480835;28;20121;-61
2024/01/27 23:18:25;;;;;;;33.45;23.10;;;23.10;45.90;;;;;;10482713;28;20045;-60
2024/01/27 23:23:26;;;;;;;34.00;22.15;;;23.00;46.00;;;;;;10474988;28;20064;-59
2024/01/27 23:28:29;;;;;;;32.05;21.15;;;23.00;45.90;;;;;;10470796;28;20068;-60
2024/01/27 23:33:31;;;;;;;32.13;22.23;;;23.00;45.70;;;;;;10475900;28;20079;-60
2024/01/27 23:38:33;;;;;;;31.60;21.98;;;23.10;45.60;;;;;;10471297;28;20084;-60
2024/01/27 23:43:36;;;;;;;29.23;20.75;;;23.10;45.60;;;;;;10482996;28;20053;-61
2024/01/27 23:48:38;;;;;;;29.65;19.92;;;23.00;45.60;;;;;;10484621;28;20487;-60
2024/01/27 23:53:39;;;;;;;33.65;21.50;;;23.00;45.50;;;;;;10480667;28;20166;-60
2024/01/27 23:58:43;;;;;;;29.10;19.88;;;22.90;45.60;;;;;;10482481;28;20079;-61
